createdAt,value
2023-12-24T00:02:23.779Z,1.87
2023-12-24T00:05:26.036Z,1.79
2023-12-24T00:08:30.245Z,1.71
2023-12-24T00:11:32.843Z,1.67
2023-12-24T00:14:35.081Z,1.71
2023-12-24T00:17:37.321Z,1.79
2023-12-24T00:20:39.541Z,1.68
2023-12-24T00:23:43.741Z,1.64
2023-12-24T00:26:45.748Z,1.65
2023-12-24T00:29:47.727Z,1.62
2023-12-24T00:32:49.978Z,1.60
2023-12-24T00:35:52.104Z,1.59
2023-12-24T00:38:54.047Z,1.64
2023-12-24T00:41:56.034Z,1.56
2023-12-24T00:44:58.153Z,1.66
2023-12-24T00:48:01.904Z,1.63
2023-12-24T00:51:05.328Z,1.55
2023-12-24T00:54:09.540Z,1.47
2023-12-24T00:57:11.504Z,1.44
2023-12-24T01:00:15.026Z,1.46
2023-12-24T01:03:17.075Z,1.45
2023-12-24T01:06:19.661Z,1.45
2023-12-24T01:09:22.075Z,1.47
2023-12-24T01:12:24.013Z,1.41
2023-12-24T01:15:26.007Z,1.47
2023-12-24T01:18:28.559Z,1.49
2023-12-24T01:21:30.875Z,1.50
2023-12-24T01:24:32.931Z,1.53
2023-12-24T01:27:34.885Z,1.50
2023-12-24T01:30:37.307Z,1.51
2023-12-24T01:33:40.208Z,1.52
2023-12-24T01:36:42.284Z,1.60
2023-12-24T01:39:44.222Z,1.71
2023-12-24T01:42:47.233Z,1.66
2023-12-24T01:45:49.853Z,1.63
2023-12-24T01:48:52.080Z,1.60
2023-12-24T01:51:55.618Z,1.72
2023-12-24T01:54:58.362Z,1.75
2023-12-24T01:58:00.453Z,1.73
2023-12-24T02:01:02.903Z,1.68
2023-12-24T02:04:05.447Z,1.71
2023-12-24T02:07:08.817Z,1.63
2023-12-24T02:10:11.192Z,1.69
2023-12-24T02:13:14.051Z,1.66
2023-12-24T02:16:22.596Z,1.59
2023-12-24T02:19:27.906Z,1.54
2023-12-24T02:22:30.038Z,1.56
2023-12-24T02:25:33.114Z,1.61
2023-12-24T02:28:43.434Z,1.57
2023-12-24T02:31:50.496Z,1.68
2023-12-24T02:34:54.614Z,1.64
2023-12-24T02:37:56.928Z,1.73
2023-12-24T02:40:59.145Z,1.64
2023-12-24T02:44:01.624Z,1.75
2023-12-24T02:47:04.403Z,1.67
2023-12-24T02:50:07.411Z,1.78
2023-12-24T02:53:09.600Z,1.71
2023-12-24T02:56:11.772Z,1.73
2023-12-24T02:59:13.805Z,1.63
2023-12-24T03:02:15.947Z,1.65
2023-12-24T03:05:18.333Z,1.62
2023-12-24T03:08:20.832Z,1.68
2023-12-24T03:11:22.844Z,1.69
2023-12-24T03:14:25.104Z,1.70
2023-12-24T03:17:27.414Z,1.72
2023-12-24T03:20:29.550Z,1.82
2023-12-24T03:23:32.724Z,1.75
2023-12-24T03:26:35.274Z,1.78
2023-12-24T03:29:37.688Z,1.77
2023-12-24T03:32:40.049Z,1.69
2023-12-24T03:35:44.533Z,1.74
2023-12-24T03:38:46.964Z,1.76
2023-12-24T03:41:49.511Z,1.74
2023-12-24T03:44:52.213Z,1.83
2023-12-24T03:47:54.724Z,1.82
2023-12-24T03:50:56.752Z,1.77
2023-12-24T03:53:59.352Z,1.84
2023-12-24T03:57:01.656Z,1.82
2023-12-24T04:00:03.879Z,1.75
2023-12-24T04:03:06.844Z,1.80
2023-12-24T04:06:33.028Z,1.84
2023-12-24T04:09:36.438Z,1.86
2023-12-24T04:12:43.875Z,1.85
2023-12-24T04:15:46.386Z,1.83
2023-12-24T04:18:48.593Z,1.77
2023-12-24T04:21:50.998Z,1.82
2023-12-24T04:24:53.485Z,1.93
2023-12-24T04:27:55.631Z,1.93
2023-12-24T04:30:57.735Z,1.84
2023-12-24T04:34:00.085Z,1.96
2023-12-24T04:37:02.221Z,2.00
2023-12-24T04:40:06.075Z,1.98
2023-12-24T04:43:08.454Z,2.05
2023-12-24T04:46:10.482Z,2.02
2023-12-24T04:49:12.770Z,2.00
2023-12-24T04:52:15.191Z,2.04
2023-12-24T04:55:17.657Z,2.03
2023-12-24T04:58:22.052Z,2.02
2023-12-24T05:01:24.517Z,2.09
2023-12-24T05:04:28.406Z,2.03
2023-12-24T05:07:31.310Z,1.96
2023-12-24T05:10:34.887Z,2.00
2023-12-24T05:13:37.786Z,2.02
2023-12-24T05:16:39.941Z,2.02
2023-12-24T05:19:44.704Z,1.99
2023-12-24T05:22:47.150Z,2.07
2023-12-24T05:25:49.517Z,1.97
2023-12-24T05:28:54.742Z,1.97
2023-12-24T05:31:59.372Z,2.01
2023-12-24T05:35:02.017Z,1.99
2023-12-24T05:38:04.556Z,2.06
2023-12-24T05:41:10.155Z,2.04
2023-12-24T05:44:12.505Z,2.05
2023-12-24T05:47:14.737Z,2.12
2023-12-24T05:50:19.491Z,2.03
2023-12-24T05:53:24.777Z,1.92
2023-12-24T05:56:29.556Z,1.97
2023-12-24T05:59:32.728Z,2.08
2023-12-24T06:02:37.258Z,2.00
2023-12-24T06:05:46.542Z,2.02
2023-12-24T06:08:49.220Z,2.08
2023-12-24T06:11:51.985Z,2.09
2023-12-24T06:14:54.953Z,2.20
2023-12-24T06:17:57.740Z,2.21
2023-12-24T06:21:06.475Z,2.13
2023-12-24T06:24:09.016Z,2.08
2023-12-24T06:27:14.447Z,2.12
2023-12-24T06:30:21.391Z,2.12
2023-12-24T06:33:24.024Z,2.13
2023-12-24T06:36:32.474Z,2.22
2023-12-24T06:39:41.331Z,2.16
2023-12-24T06:42:44.567Z,2.26
2023-12-24T06:45:47.292Z,2.22
2023-12-24T06:48:50.483Z,2.13
2023-12-24T06:51:54.904Z,2.28
2023-12-24T06:54:57.869Z,2.23
2023-12-24T06:58:04.328Z,2.26
2023-12-24T07:01:14.833Z,2.35
2023-12-24T07:04:24.027Z,2.27
2023-12-24T07:07:27.874Z,2.22
2023-12-24T07:10:30.197Z,2.30
2023-12-24T07:13:32.386Z,2.40
2023-12-24T07:16:36.768Z,2.44
2023-12-24T07:19:40.548Z,2.49
2023-12-24T07:22:42.638Z,2.64
2023-12-24T07:25:44.891Z,2.64
2023-12-24T07:28:48.907Z,2.75
2023-12-24T07:31:51.241Z,2.81
2023-12-24T07:34:55.419Z,2.88
2023-12-24T07:37:57.929Z,2.89
2023-12-24T07:41:00.364Z,2.89
2023-12-24T07:44:02.822Z,3.11
2023-12-24T07:47:05.087Z,3.11
2023-12-24T07:50:08.775Z,3.17
2023-12-24T07:53:11.047Z,3.41
2023-12-24T07:56:14.931Z,3.53
2023-12-24T07:59:17.193Z,3.52
2023-12-24T08:02:19.673Z,3.58
2023-12-24T08:05:21.691Z,3.77
2023-12-24T08:08:23.813Z,3.99
2023-12-24T08:11:26.945Z,4.07
2023-12-24T08:14:30.617Z,4.16
2023-12-24T08:17:33.069Z,4.20
2023-12-24T08:20:38.089Z,4.27
2023-12-24T08:23:40.958Z,4.38
2023-12-24T08:26:43.460Z,4.37
2023-12-24T08:29:45.601Z,4.57
2023-12-24T08:32:47.594Z,4.64
2023-12-24T08:35:49.566Z,4.56
2023-12-24T08:38:51.640Z,4.38
2023-12-24T08:41:53.667Z,4.04
2023-12-24T08:44:55.841Z,4.00
2023-12-24T08:47:58.845Z,3.89
2023-12-24T08:51:05.885Z,4.01
2023-12-24T08:54:08.233Z,4.08
2023-12-24T08:57:10.883Z,4.13
2023-12-24T09:00:14.134Z,4.17
2023-12-24T09:03:18.498Z,4.35
2023-12-24T09:06:23.677Z,4.52
2023-12-24T09:09:26.162Z,4.42
2023-12-24T09:12:28.824Z,4.53
2023-12-24T09:15:30.924Z,4.61
2023-12-24T09:18:35.066Z,4.69
2023-12-24T09:21:37.227Z,4.68
2023-12-24T09:24:40.560Z,4.75
2023-12-24T09:27:42.402Z,4.72
2023-12-24T09:30:44.682Z,4.68
2023-12-24T09:33:47.089Z,4.61
2023-12-24T09:36:49.377Z,4.67
2023-12-24T09:39:51.403Z,4.74
2023-12-24T09:42:54.812Z,4.80
2023-12-24T09:45:57.170Z,4.82
2023-12-24T09:48:59.293Z,4.88
2023-12-24T09:52:01.893Z,4.84
2023-12-24T09:55:05.124Z,4.94
2023-12-24T09:58:07.374Z,4.97
2023-12-24T10:01:09.628Z,4.94
2023-12-24T10:04:15.716Z,4.99
2023-12-24T10:07:18.892Z,5.09
2023-12-24T10:10:31.071Z,5.19
2023-12-24T10:13:33.178Z,5.13
2023-12-24T10:16:47.450Z,5.34
2023-12-24T10:19:49.704Z,5.38
2023-12-24T10:23:06.632Z,5.55
2023-12-24T10:26:13.537Z,6.15
2023-12-24T10:29:24.360Z,6.10
2023-12-24T10:32:34.438Z,6.16
2023-12-24T10:35:39.973Z,6.31
2023-12-24T10:38:43.337Z,7.02
2023-12-24T10:41:49.738Z,7.04
2023-12-24T10:44:58.514Z,7.12
2023-12-24T10:48:02.480Z,7.26
2023-12-24T10:51:05.166Z,7.35
2023-12-24T10:54:12.138Z,7.41
2023-12-24T10:57:52.012Z,7.47
2023-12-24T11:00:55.158Z,7.41
2023-12-24T11:03:58.585Z,7.62
2023-12-24T11:07:06.393Z,7.47
2023-12-24T11:10:08.558Z,7.49
2023-12-24T11:16:57.232Z,7.77
2023-12-24T11:20:24.955Z,7.97
2023-12-24T11:23:27.064Z,8.03
2023-12-24T11:26:33.655Z,7.92
2023-12-24T11:29:50.433Z,7.87
2023-12-24T11:32:53.238Z,7.80
2023-12-24T11:36:01.784Z,7.69
2023-12-24T11:39:05.052Z,7.70
2023-12-24T11:42:07.415Z,7.80
2023-12-24T11:45:20.458Z,7.67
2023-12-24T11:48:31.420Z,7.84
2023-12-24T11:51:33.935Z,7.76
2023-12-24T11:54:36.134Z,7.79
2023-12-24T11:57:38.737Z,8.00
2023-12-24T12:00:40.824Z,8.01
2023-12-24T12:03:43.231Z,7.95
2023-12-24T12:06:51.048Z,7.91
2023-12-24T12:09:53.597Z,8.01
2023-12-24T12:12:58.344Z,7.90
2023-12-24T12:16:03.240Z,8.19
2023-12-24T12:19:09.164Z,8.19
2023-12-24T12:22:15.518Z,8.06
2023-12-24T12:25:22.890Z,8.17
2023-12-24T12:28:31.996Z,8.20
2023-12-24T12:32:02.303Z,8.21
2023-12-24T12:35:11.379Z,8.36
2023-12-24T12:38:20.618Z,8.42
2023-12-24T12:41:26.910Z,8.44
2023-12-24T12:44:34.553Z,8.55
2023-12-24T12:47:44.979Z,8.56
2023-12-24T12:50:59.163Z,8.47
2023-12-24T12:54:07.927Z,8.47
2023-12-24T12:57:14.262Z,8.63
2023-12-24T13:00:32.610Z,8.35
2023-12-24T13:04:04.678Z,8.46
2023-12-24T13:07:10.077Z,8.41
2023-12-24T13:10:34.298Z,8.18
2023-12-24T13:13:39.493Z,7.97
2023-12-24T13:16:43.286Z,7.70
2023-12-24T13:19:46.665Z,7.55
2023-12-24T13:22:49.579Z,7.56
2023-12-24T13:25:52.743Z,7.38
2023-12-24T13:28:58.887Z,7.27
2023-12-24T13:32:01.134Z,7.16
2023-12-24T13:35:03.500Z,7.07
2023-12-24T13:38:09.560Z,7.22
2023-12-24T13:41:12.866Z,7.21
2023-12-24T13:44:16.010Z,7.27
2023-12-24T13:47:18.308Z,7.48
2023-12-24T13:50:21.731Z,7.52
2023-12-24T13:53:31.352Z,7.44
2023-12-24T13:56:35.110Z,7.36
2023-12-24T13:59:37.253Z,7.24
2023-12-24T14:02:39.608Z,7.19
2023-12-24T14:05:41.983Z,7.19
2023-12-24T14:08:45.440Z,7.19
2023-12-24T14:11:48.102Z,7.05
2023-12-24T14:14:51.932Z,7.15
2023-12-24T14:17:54.384Z,7.14
2023-12-24T14:20:56.526Z,7.17
2023-12-24T14:24:01.008Z,7.11
2023-12-24T14:27:04.553Z,7.10
2023-12-24T14:30:08.993Z,7.05
2023-12-24T14:33:12.896Z,7.00
2023-12-24T14:36:16.031Z,6.79
2023-12-24T14:39:18.410Z,6.83
2023-12-24T14:42:24.175Z,6.87
2023-12-24T14:45:26.414Z,6.89
2023-12-24T14:48:30.275Z,6.90
2023-12-24T14:51:33.149Z,6.86
2023-12-24T14:54:36.252Z,6.69
2023-12-24T14:57:39.744Z,6.61
2023-12-24T15:00:42.775Z,6.73
2023-12-24T15:03:45.171Z,6.79
2023-12-24T15:06:49.857Z,6.66
2023-12-24T15:09:52.547Z,6.72
2023-12-24T15:12:55.007Z,6.64
2023-12-24T15:15:58.188Z,6.68
2023-12-24T15:19:00.614Z,6.78
2023-12-24T15:22:04.552Z,6.72
2023-12-24T15:25:06.672Z,6.75
2023-12-24T15:28:08.893Z,6.68
2023-12-24T15:31:14.526Z,6.60
2023-12-24T15:34:17.132Z,6.63
2023-12-24T15:37:22.238Z,6.63
2023-12-24T15:40:24.730Z,6.65
2023-12-24T15:43:27.404Z,6.71
2023-12-24T15:46:29.726Z,6.70
2023-12-24T15:49:32.019Z,6.72
2023-12-24T15:52:37.159Z,6.80
2023-12-24T15:55:39.456Z,6.76
2023-12-24T15:58:41.854Z,6.77
2023-12-24T16:01:45.274Z,6.74
2023-12-24T16:04:48.444Z,6.66
2023-12-24T16:07:51.184Z,6.70
2023-12-24T16:10:53.495Z,6.64
2023-12-24T16:13:55.651Z,6.71
2023-12-24T16:16:59.237Z,6.68
2023-12-24T16:20:01.421Z,6.63
2023-12-24T16:23:10.404Z,6.73
2023-12-24T16:26:18.860Z,6.72
2023-12-24T16:29:25.366Z,6.66
2023-12-24T16:32:31.614Z,6.90
2023-12-24T16:35:38.518Z,6.77
2023-12-24T16:38:42.070Z,6.65
2023-12-24T16:41:46.687Z,6.64
2023-12-24T16:44:57.829Z,6.70
2023-12-24T16:48:00.332Z,6.77
2023-12-24T16:51:02.770Z,6.70
2023-12-24T16:54:05.316Z,6.69
2023-12-24T16:57:07.698Z,6.84
2023-12-24T17:00:10.467Z,6.74
2023-12-24T17:03:13.133Z,6.80
2023-12-24T17:06:15.767Z,6.78
2023-12-24T17:09:21.432Z,6.71
2023-12-24T17:12:23.783Z,6.94
2023-12-24T17:15:30.112Z,7.02
2023-12-24T17:18:36.360Z,7.05
2023-12-24T17:21:39.213Z,6.81
2023-12-24T17:24:43.414Z,6.84
2023-12-24T17:27:49.663Z,7.05
2023-12-24T17:30:52.111Z,7.06
2023-12-24T17:33:56.747Z,6.87
2023-12-24T17:37:01.874Z,7.02
2023-12-24T17:40:05.132Z,6.99
2023-12-24T17:43:07.377Z,7.01
2023-12-24T17:46:09.446Z,7.02
2023-12-24T17:49:12.720Z,7.02
2023-12-24T17:52:16.705Z,7.05
2023-12-24T17:55:18.867Z,6.97
2023-12-24T17:58:29.843Z,7.10
2023-12-24T18:01:32.592Z,7.47
2023-12-24T18:04:35.781Z,7.54
2023-12-24T18:07:38.973Z,7.75
2023-12-24T18:10:41.816Z,7.72
2023-12-24T18:13:44.080Z,7.93
2023-12-24T18:16:46.436Z,8.00
2023-12-24T18:19:48.613Z,8.30
2023-12-24T18:22:51.142Z,8.27
2023-12-24T18:25:56.071Z,8.46
2023-12-24T18:29:00.894Z,8.28
2023-12-24T18:32:04.805Z,8.22
2023-12-24T18:35:07.216Z,8.20
2023-12-24T18:38:09.357Z,8.23
2023-12-24T18:41:19.606Z,8.08
2023-12-24T18:44:22.406Z,7.96
2023-12-24T18:47:24.606Z,8.85
2023-12-24T18:50:26.757Z,8.67
2023-12-24T18:53:34.733Z,8.74
2023-12-24T18:56:39.035Z,9.14
2023-12-24T18:59:41.263Z,9.21
2023-12-24T19:02:43.583Z,9.25
2023-12-24T19:05:46.028Z,9.48
2023-12-24T19:08:48.238Z,9.15
2023-12-24T19:11:50.388Z,9.27
2023-12-24T19:14:52.662Z,9.10
2023-12-24T19:17:54.899Z,9.12
2023-12-24T19:20:57.111Z,9.17
2023-12-24T19:23:59.091Z,9.05
2023-12-24T19:27:02.251Z,9.30
2023-12-24T19:30:05.254Z,9.20
2023-12-24T19:33:08.853Z,9.05
2023-12-24T19:36:11.105Z,8.70
2023-12-24T19:39:22.885Z,8.47
2023-12-24T19:42:32.702Z,8.39
2023-12-24T19:45:35.238Z,8.20
2023-12-24T19:48:37.600Z,8.16
2023-12-24T19:51:40.916Z,8.08
2023-12-24T19:54:44.065Z,8.00
2023-12-24T19:57:46.734Z,7.99
2023-12-24T20:00:49.249Z,7.96
2023-12-24T20:03:51.341Z,8.02
2023-12-24T20:06:54.888Z,8.11
2023-12-24T20:09:56.994Z,8.04
2023-12-24T20:12:59.825Z,8.05
2023-12-24T20:16:02.139Z,8.01
2023-12-24T20:19:04.561Z,8.00
2023-12-24T20:22:06.914Z,7.93
2023-12-24T20:25:11.535Z,7.91
2023-12-24T20:28:13.780Z,7.85
2023-12-24T20:31:16.702Z,7.85
2023-12-24T20:34:18.697Z,7.84
2023-12-24T20:37:21.530Z,7.74
2023-12-24T20:40:23.831Z,7.70
2023-12-24T20:43:28.768Z,7.69
2023-12-24T20:46:30.894Z,7.75
2023-12-24T20:49:34.290Z,7.72
2023-12-24T20:52:36.558Z,7.70
2023-12-24T20:55:38.830Z,7.75
2023-12-24T20:58:41.245Z,7.72
2023-12-24T21:01:43.529Z,7.71
2023-12-24T21:04:45.656Z,7.72
2023-12-24T21:07:49.432Z,7.69
2023-12-24T21:10:51.597Z,7.65
2023-12-24T21:13:54.264Z,7.60
2023-12-24T21:16:56.153Z,7.69
2023-12-24T21:19:58.173Z,7.67
2023-12-24T21:23:01.060Z,7.67
2023-12-24T21:26:03.067Z,7.64
2023-12-24T21:29:05.562Z,7.70
2023-12-24T21:32:07.477Z,7.71
2023-12-24T21:35:09.837Z,7.69
2023-12-24T21:38:12.111Z,7.71
2023-12-24T21:41:15.821Z,7.74
2023-12-24T21:44:17.779Z,7.75
2023-12-24T21:47:20.669Z,7.76
2023-12-24T21:50:22.815Z,7.74
2023-12-24T21:53:25.369Z,7.68
2023-12-24T21:56:32.855Z,7.70
2023-12-24T21:59:35.590Z,7.69
2023-12-24T22:02:37.678Z,7.66
2023-12-24T22:05:40.891Z,7.75
2023-12-24T22:08:45.214Z,7.70
2023-12-24T22:11:47.405Z,7.68
2023-12-24T22:14:51.961Z,7.86
2023-12-24T22:17:57.202Z,7.74
2023-12-24T22:21:02.154Z,7.63
2023-12-24T22:24:04.810Z,7.63
2023-12-24T22:27:06.915Z,7.58
2023-12-24T22:30:10.930Z,7.57
2023-12-24T22:33:14.050Z,7.53
2023-12-24T22:36:16.342Z,7.53
2023-12-24T22:39:20.171Z,7.58
2023-12-24T22:42:22.116Z,7.49
2023-12-24T22:45:26.789Z,7.47
2023-12-24T22:48:28.983Z,7.37
2023-12-24T22:51:31.425Z,7.40
2023-12-24T22:54:33.509Z,7.31
2023-12-24T22:57:35.611Z,7.35
2023-12-24T23:00:37.639Z,7.36
2023-12-24T23:03:43.885Z,7.34
2023-12-24T23:06:46.106Z,7.29
2023-12-24T23:09:48.263Z,7.21
2023-12-24T23:12:50.689Z,7.23
2023-12-24T23:15:54.413Z,7.23
2023-12-24T23:18:56.855Z,7.22
2023-12-24T23:22:00.309Z,7.14
2023-12-24T23:25:04.471Z,7.11
2023-12-24T23:28:09.447Z,7.06
2023-12-24T23:31:11.572Z,7.03
2023-12-24T23:34:13.906Z,6.96
2023-12-24T23:37:16.497Z,6.94
2023-12-24T23:40:18.800Z,6.88
2023-12-24T23:43:25.451Z,6.78
2023-12-24T23:46:27.529Z,6.76
2023-12-24T23:49:32.656Z,6.80
2023-12-24T23:52:37.507Z,6.81
2023-12-24T23:55:39.704Z,6.77
2023-12-24T23:58:41.848Z,6.80
